Wetterdaten: Mittwoch, 17.12.2014
Datum Zeit Temp. A. Feuchte A. Luftdruck Regen Wind Richtung Richtung Sonnenschein ET UV Solar Taupunkt Windchill Windben Empfang
17.12.2014 00:00 4,0 C 85 % 1013,2 hPa 0,0 l/m 0,0 km/h (0 Bft) SW 230 0 min 0,000 mm 0,0 UV-I 0 W/m 1,7 C 4,0 C 0,0 km/h (0 Bft) 0,00 %
17.12.2014 01:00 3,9 C 85 % 1013,6 hPa 0,0 l/m 0,0 km/h (0 Bft) SW 220 0 min 0,000 mm 0,0 UV-I 0 W/m 1,6 C 3,9 C 0,0 km/h (0 Bft) 0,00 %
17.12.2014 02:00 4,1 C 85 % 1013,5 hPa 0,0 l/m 0,6 km/h (0 Bft) S-SW 210 0 min 0,000 mm 0,0 UV-I 0 W/m 1,8 C 4,1 C 4,0 km/h (1 Bft) 0,00 %
17.12.2014 03:00 4,0 C 84 % 1013,6 hPa 0,0 l/m 0,6 km/h (0 Bft) S-SW 200 0 min 0,000 mm 0,0 UV-I 0 W/m 1,5 C 4,0 C 4,0 km/h (1 Bft) 0,00 %
17.12.2014 04:00 4,1 C 83 % 1013,5 hPa 0,0 l/m 0,6 km/h (0 Bft) W-SW 240 0 min 0,000 mm 0,0 UV-I 0 W/m 1,5 C 4,1 C 4,0 km/h (1 Bft) 0,00 %
17.12.2014 05:00 4,2 C 84 % 1013,8 hPa 0,3 l/m 4,7 km/h (1 Bft) W-SW 250 0 min 0,000 mm 0,0 UV-I 0 W/m 1,7 C 4,2 C 7,9 km/h (2 Bft) 0,00 %
17.12.2014 06:00 3,3 C 86 % 1014,0 hPa 0,3 l/m 0,0 km/h (0 Bft) S-SW 210 0 min 0,000 mm 0,0 UV-I 0 W/m 1,2 C 3,3 C 0,0 km/h (0 Bft) 0,00 %
17.12.2014 07:00 3,3 C 85 % 1014,7 hPa 0,0 l/m 0,6 km/h (0 Bft) S-SW 200 0 min 0,000 mm 0,0 UV-I 0 W/m 1,0 C 3,3 C 4,0 km/h (1 Bft) 0,00 %
17.12.2014 08:00 3,2 C 85 % 1014,7 hPa 0,0 l/m 0,0 km/h (0 Bft) SW 230 0 min 0,000 mm 0,0 UV-I 0 W/m 0,9 C 3,2 C 0,0 km/h (0 Bft) 0,00 %
17.12.2014 09:00 3,2 C 83 % 1015,2 hPa 0,0 l/m 0,0 km/h (0 Bft) W-SW 240 0 min 0,000 mm 0,0 UV-I 1 W/m 0,6 C 3,2 C 0,0 km/h (0 Bft) 0,00 %
17.12.2014 10:00 4,4 C 75 % 1015,0 hPa 0,0 l/m 1,4 km/h (1 Bft) W-SW 245 60 min 0,000 mm 1,0 UV-I 167 W/m 0,4 C 4,4 C 4,0 km/h (1 Bft) 0,00 %
17.12.2014 11:00 4,6 C 74 % 1014,2 hPa 0,0 l/m 0,0 km/h (0 Bft) W-SW 246 60 min 0,000 mm 1,0 UV-I 213 W/m 0,4 C 4,6 C 0,0 km/h (0 Bft) 0,00 %
17.12.2014 12:00 5,2 C 71 % 1013,0 hPa 0,0 l/m 0,0 km/h (0 Bft) S-SO 149 60 min 0,000 mm 1,0 UV-I 233 W/m 0,4 C 5,2 C 0,0 km/h (0 Bft) 0,00 %
17.12.2014 13:00 5,4 C 66 % 1012,0 hPa 0,0 l/m 0,0 km/h (0 Bft) S 180 60 min 0,000 mm 1,0 UV-I 234 W/m -0,4 C 5,4 C 0,0 km/h (0 Bft) 0,00 %
17.12.2014 14:00 5,7 C 67 % 1011,2 hPa 0,0 l/m 0,0 km/h (0 Bft) S-SW 200 60 min 0,000 mm 1,0 UV-I 211 W/m 0,1 C 5,7 C 0,0 km/h (0 Bft) 0,00 %
17.12.2014 15:00 4,8 C 72 % 1010,3 hPa 0,0 l/m 0,0 km/h (0 Bft) O 90 60 min 0,000 mm 1,0 UV-I 91 W/m 0,2 C 4,8 C 0,0 km/h (0 Bft) 0,00 %
17.12.2014 16:00 3,9 C 77 % 1009,7 hPa 0,0 l/m 0,0 km/h (0 Bft) S 190 0 min 0,000 mm 0,0 UV-I 40 W/m 0,2 C 3,9 C 0,0 km/h (0 Bft) 0,00 %
17.12.2014 17:00 3,3 C 82 % 1009,8 hPa 0,0 l/m 0,0 km/h (0 Bft) S 180 0 min 0,000 mm 0,0 UV-I 0 W/m 0,5 C 3,3 C 0,0 km/h (0 Bft) 0,00 %
17.12.2014 18:00 3,0 C 84 % 1010,2 hPa 0,0 l/m 0,0 km/h (0 Bft) S 180 0 min 0,000 mm 0,0 UV-I 0 W/m 0,6 C 3,0 C 0,0 km/h (0 Bft) 0,00 %
17.12.2014 19:00 3,1 C 84 % 1010,6 hPa 0,0 l/m 0,0 km/h (0 Bft) SW 230 0 min 0,000 mm 0,0 UV-I 0 W/m 0,7 C 3,1 C 0,0 km/h (0 Bft) 0,00 %
17.12.2014 20:00 3,1 C 85 % 1011,2 hPa 0,6 l/m 0,0 km/h (0 Bft) S 180 0 min 0,000 mm 0,0 UV-I 0 W/m 0,8 C 3,1 C 0,0 km/h (0 Bft) 0,00 %
17.12.2014 21:00 3,2 C 86 % 1011,2 hPa 0,6 l/m 0,0 km/h (0 Bft) S 180 0 min 0,000 mm 0,0 UV-I 0 W/m 1,1 C 3,2 C 0,0 km/h (0 Bft) 0,00 %
17.12.2014 22:00 4,0 C 83 % 1011,5 hPa 0,0 l/m 0,0 km/h (0 Bft) SW 234 0 min 0,000 mm 0,0 UV-I 0 W/m 1,4 C 4,0 C 0,0 km/h (0 Bft) 0,00 %
17.12.2014 23:00 4,7 C 80 % 1011,7 hPa 0,0 l/m 3,2 km/h (1 Bft) W 270 0 min 0,000 mm 0,0 UV-I 0 W/m 1,6 C 4,7 C 4,0 km/h (1 Bft) 0,00 %
_ Min-Zeit 18:00 13:00 16:00 - 00:00 - - - - - - 13:00 18:00 00:00 00:00
Minimum _ 3,0 C 66 % 1009,7 hPa - 0,0 km/h (0 Bft) - - - - - - -0,4 C 3,0 C 0,0 km/h (0 Bft) 0,00 %
_ Max-Zeit 14:00 06:00 09:00 20:00 05:00 - - 10:00 00:00 10:00 13:00 02:00 14:00 05:00 00:00
Maximum _ 5,7 C 86 % 1015,2 hPa 0,6 l/m 4,7 km/h
W-SW (1 Bft)
- - 60 min 0,000 mm 1,0 UV-I 234 W/m 1,8 C 5,7 C 7,9 km/h
W-SW (2 Bft)
0,00 %
Durchschnitt _ 4,0 C 80 % 1012,5 hPa #1,8 l/m 0,5 km/h (0 Bft) W-SW - #6:00 h #0,000 mm 1,0 UV-I 149 W/m 0,9 C 4,0 C 1,4 km/h (1 Bft) 0,00 %